Time;durP1;ratioP1;P1;durP2;ratioP2;P2;SDS_P1;SDS_P2;PMS_P1;PMS_P2;Temp;Humidity;BMP_temperature;BMP_pressure;BME280_temperature;BME280_humidity;BME280_pressure;Samples;Min_cycle;Max_cycle;Signal;HPM_P1;HPM_P2
2022/09/23 00:00:28;;;;;;;3.83;2.50;;;;;;;;;;4978496;28;20037;-84
2022/09/23 00:02:53;;;;;;;3.40;2.45;;;;;;;;;;4995530;28;20458;-84
2022/09/23 00:05:19;;;;;;;3.67;2.53;;;;;;;;;;4994971;28;20042;-83
2022/09/23 00:07:44;;;;;;;5.13;2.75;;;;;;;;;;4978104;28;20061;-86
2022/09/23 00:10:10;;;;;;;3.33;2.47;;;;;;;;;;4995498;28;20117;-84
2022/09/23 00:12:36;;;;;;;3.47;2.75;;;;;;;;;;4994426;28;20411;-83
2022/09/23 00:15:02;;;;;;;3.25;2.45;;;;;;;;;;4994746;28;20092;-83
2022/09/23 00:17:27;;;;;;;4.68;2.58;;;;;;;;;;4995448;28;20042;-83
2022/09/23 00:19:54;;;;;;;3.97;2.60;;;;;;;;;;4995664;28;20038;-84
2022/09/23 00:22:20;;;;;;;3.67;2.60;;;;;;;;;;4977799;28;20038;-84
2022/09/23 00:24:46;;;;;;;5.43;2.30;;;;;;;;;;4977195;28;20042;-86
2022/09/23 00:27:11;;;;;;;3.40;2.28;;;;;;;;;;4995252;28;20034;-85
2022/09/23 00:29:37;;;;;;;3.92;2.10;;;;;;;;;;4961320;28;20054;-84
2022/09/23 00:32:03;;;;;;;3.45;2.20;;;;;;;;;;4977959;28;20121;-85
2022/09/23 00:34:29;;;;;;;3.42;2.40;;;;;;;;;;4994697;28;20514;-84
2022/09/23 00:36:55;;;;;;;3.40;2.10;;;;;;;;;;4995051;28;20042;-83
2022/09/23 00:39:25;;;;;;;3.00;2.28;;;;;;;;;;4994968;28;20033;-84
2022/09/23 00:41:51;;;;;;;2.88;2.15;;;;;;;;;;4977361;28;20045;-84
2022/09/23 00:44:42;;;;;;;2.95;2.20;;;;;;;;;;4959749;28;20557;-84
2022/09/23 00:47:30;;;;;;;3.97;2.22;;;;;;;;;;4994949;28;20061;-83
2022/09/23 00:50:14;;;;;;;3.28;2.03;;;;;;;;;;4977317;28;20411;-84
2022/09/23 00:52:39;;;;;;;3.25;2.00;;;;;;;;;;4977479;28;20038;-84
2022/09/23 00:55:10;;;;;;;4.45;2.40;;;;;;;;;;4994186;28;20034;-84
2022/09/23 00:57:39;;;;;;;5.00;3.20;;;;;;;;;;4977246;28;20531;-84
2022/09/23 01:00:06;;;;;;;5.85;3.00;;;;;;;;;;4996026;28;20025;-85
2022/09/23 01:02:32;;;;;;;5.20;2.40;;;;;;;;;;4977408;28;20049;-84
2022/09/23 01:04:58;;;;;;;3.63;2.45;;;;;;;;;;4959856;28;20046;-84
2022/09/23 01:07:24;;;;;;;4.63;2.75;;;;;;;;;;4994449;28;20038;-84
2022/09/23 01:09:49;;;;;;;3.40;2.30;;;;;;;;;;4977193;28;20542;-85
2022/09/23 01:12:38;;;;;;;3.85;2.58;;;;;;;;;;4993994;28;20101;-85
2022/09/23 01:15:27;;;;;;;2.92;2.20;;;;;;;;;;4988224;28;20046;-84
2022/09/23 01:18:17;;;;;;;3.28;2.35;;;;;;;;;;4977000;28;20065;-85
2022/09/23 01:21:15;;;;;;;6.32;2.45;;;;;;;;;;4994311;28;20034;-83
2022/09/23 01:24:18;;;;;;;5.32;2.30;;;;;;;;;;4976928;28;20053;-84
2022/09/23 01:26:50;;;;;;;3.10;1.95;;;;;;;;;;4977023;28;20129;-85
2022/09/23 01:29:22;;;;;;;3.60;2.28;;;;;;;;;;4976616;28;20121;-84
2022/09/23 01:31:51;;;;;;;3.47;2.00;;;;;;;;;;4994327;28;20092;-84
2022/09/23 01:34:36;;;;;;;4.38;2.30;;;;;;;;;;4993735;28;20271;-84
2022/09/23 01:37:33;;;;;;;3.63;2.30;;;;;;;;;;4994576;28;20054;-83
2022/09/23 01:40:09;;;;;;;4.90;2.38;;;;;;;;;;4944751;28;20153;-83
2022/09/23 01:42:41;;;;;;;3.35;2.17;;;;;;;;;;4994367;28;20533;-82
2022/09/23 01:45:35;;;;;;;3.70;2.30;;;;;;;;;;4993700;28;20443;-83
2022/09/23 01:48:12;;;;;;;3.63;2.22;;;;;;;;;;4959937;28;20069;-84
2022/09/23 01:50:57;;;;;;;2.63;2.25;;;;;;;;;;4976563;28;20483;-83
2022/09/23 01:53:49;;;;;;;3.10;1.98;;;;;;;;;;4960064;28;20518;-84
2022/09/23 01:56:21;;;;;;;2.90;2.30;;;;;;;;;;4997565;28;20053;-83
2022/09/23 01:58:53;;;;;;;2.88;2.08;;;;;;;;;;4998068;28;20097;-85
2022/09/23 02:01:27;;;;;;;4.20;2.20;;;;;;;;;;4980098;28;20034;-84
2022/09/23 02:03:59;;;;;;;2.60;2.17;;;;;;;;;;4979752;28;20038;-82
2022/09/23 02:06:33;;;;;;;2.83;2.00;;;;;;;;;;4997361;28;20038;-83
2022/09/23 02:09:09;;;;;;;2.63;1.88;;;;;;;;;;4997152;28;20065;-83
2022/09/23 02:11:36;;;;;;;2.70;2.00;;;;;;;;;;4978726;28;20141;-83
2022/09/23 02:14:10;;;;;;;3.30;2.03;;;;;;;;;;4997147;28;20045;-83
2022/09/23 02:16:39;;;;;;;2.95;2.08;;;;;;;;;;4980630;28;20057;-84
2022/09/23 02:19:13;;;;;;;3.17;2.00;;;;;;;;;;4997329;28;20030;-84
2022/09/23 02:21:42;;;;;;;2.55;1.90;;;;;;;;;;4997279;28;20042;-85
2022/09/23 02:24:25;;;;;;;5.38;1.92;;;;;;;;;;4979238;28;20068;-84
2022/09/23 02:26:54;;;;;;;2.60;1.90;;;;;;;;;;4979898;28;20607;-85
2022/09/23 02:29:44;;;;;;;3.15;1.80;;;;;;;;;;4996982;28;20073;-85
2022/09/23 02:32:21;;;;;;;2.38;1.73;;;;;;;;;;4997277;28;20415;-84
2022/09/23 02:35:22;;;;;;;2.45;1.80;;;;;;;;;;4979099;28;20049;-85
2022/09/23 02:37:55;;;;;;;1.73;1.52;;;;;;;;;;4978826;28;20505;-84
2022/09/23 02:40:26;;;;;;;2.25;1.70;;;;;;;;;;4996899;28;20388;-83
2022/09/23 02:43:20;;;;;;;2.17;1.65;;;;;;;;;;4979647;28;20043;-84
2022/09/23 02:45:46;;;;;;;2.10;1.70;;;;;;;;;;4991085;28;20042;-83
2022/09/23 02:48:24;;;;;;;3.13;1.60;;;;;;;;;;4978878;28;20105;-83
2022/09/23 02:50:49;;;;;;;1.90;1.60;;;;;;;;;;4996268;28;20096;-83
2022/09/23 02:53:15;;;;;;;1.95;1.63;;;;;;;;;;4979356;28;20479;-82
2022/09/23 02:55:41;;;;;;;2.30;1.88;;;;;;;;;;4996093;28;20058;-83
2022/09/23 02:58:08;;;;;;;2.28;1.77;;;;;;;;;;4996648;28;20062;-84
2022/09/23 03:00:46;;;;;;;2.90;1.77;;;;;;;;;;4979274;28;20073;-83
2022/09/23 03:03:36;;;;;;;2.03;1.75;;;;;;;;;;4963388;28;20038;-83
2022/09/23 03:06:16;;;;;;;2.40;1.80;;;;;;;;;;4995113;28;20026;-83
2022/09/23 03:08:49;;;;;;;2.75;1.70;;;;;;;;;;4996783;28;20046;-84
2022/09/23 03:11:16;;;;;;;3.10;1.98;;;;;;;;;;5003364;28;20062;-83
2022/09/23 03:14:03;;;;;;;2.65;1.55;;;;;;;;;;4985329;28;20038;-83
2022/09/23 03:16:59;;;;;;;1.95;1.50;;;;;;;;;;5002908;28;20692;-83
2022/09/23 03:19:47;;;;;;;2.28;1.75;;;;;;;;;;4989096;28;20046;-84
2022/09/23 03:22:20;;;;;;;2.00;1.65;;;;;;;;;;4996248;28;20121;-83
2022/09/23 03:24:47;;;;;;;2.60;1.60;;;;;;;;;;4995636;28;20042;-85
2022/09/23 03:27:20;;;;;;;4.72;1.73;;;;;;;;;;4996612;28;20446;-85
2022/09/23 03:29:52;;;;;;;1.63;1.33;;;;;;;;;;4996409;28;20402;-84
2022/09/23 03:32:22;;;;;;;2.17;1.60;;;;;;;;;;4996674;28;20050;-85
2022/09/23 03:34:51;;;;;;;2.60;1.80;;;;;;;;;;4961931;28;20049;-85
2022/09/23 03:37:23;;;;;;;5.68;2.00;;;;;;;;;;4996287;28;20045;-84
2022/09/23 03:40:02;;;;;;;2.70;1.90;;;;;;;;;;4995939;28;20541;-84
2022/09/23 03:42:31;;;;;;;2.63;1.73;;;;;;;;;;4996003;28;20542;-84
2022/09/23 03:44:58;;;;;;;3.63;1.90;;;;;;;;;;4977796;28;20022;-84
2022/09/23 03:47:26;;;;;;;2.50;1.60;;;;;;;;;;4995841;28;20042;-84
2022/09/23 03:49:52;;;;;;;2.17;1.50;;;;;;;;;;4995576;28;20381;-84
2022/09/23 03:52:21;;;;;;;2.72;1.45;;;;;;;;;;4995249;28;20038;-85
2022/09/23 03:54:47;;;;;;;2.63;1.80;;;;;;;;;;4995176;28;20073;-84
2022/09/23 03:57:13;;;;;;;3.30;1.60;;;;;;;;;;4995903;28;20030;-84
2022/09/23 03:59:39;;;;;;;2.47;1.52;;;;;;;;;;4995848;28;20029;-84
2022/09/23 04:02:06;;;;;;;1.80;1.42;;;;;;;;;;4978051;28;20038;-83
2022/09/23 04:04:33;;;;;;;2.40;1.67;;;;;;;;;;4977254;28;20061;-85
2022/09/23 04:06:58;;;;;;;2.03;1.60;;;;;;;;;;4995736;28;20037;-85
2022/09/23 04:09:24;;;;;;;1.98;1.50;;;;;;;;;;4995239;28;20042;-84
2022/09/23 04:11:50;;;;;;;2.00;1.40;;;;;;;;;;4994683;28;20128;-84
2022/09/23 04:14:17;;;;;;;3.83;1.50;;;;;;;;;;4977268;28;20045;-84
2022/09/23 04:16:43;;;;;;;2.00;1.65;;;;;;;;;;4995409;28;20034;-84
2022/09/23 04:19:12;;;;;;;2.53;1.80;;;;;;;;;;4995651;28;20053;-84
2022/09/23 04:21:39;;;;;;;2.00;1.63;;;;;;;;;;4961866;28;20372;-83
2022/09/23 04:24:05;;;;;;;2.40;1.98;;;;;;;;;;4977439;28;20042;-83
2022/09/23 04:26:32;;;;;;;4.00;2.40;;;;;;;;;;4995467;28;20076;-83
2022/09/23 04:28:57;;;;;;;6.10;3.10;;;;;;;;;;4995027;28;20057;-84
2022/09/23 04:31:23;;;;;;;7.30;3.80;;;;;;;;;;4978018;28;20034;-84
2022/09/23 04:33:49;;;;;;;3.38;2.42;;;;;;;;;;4977731;28;20038;-85
2022/09/23 04:36:15;;;;;;;3.03;1.95;;;;;;;;;;4994976;28;20058;-84
2022/09/23 04:38:44;;;;;;;2.65;1.90;;;;;;;;;;4995291;28;20045;-85
2022/09/23 04:41:10;;;;;;;5.20;2.65;;;;;;;;;;4995118;28;20053;-85
2022/09/23 04:43:36;;;;;;;3.53;2.05;;;;;;;;;;4977491;28;20038;-85
2022/09/23 04:46:04;;;;;;;2.50;1.60;;;;;;;;;;4976440;28;20049;-84
2022/09/23 04:48:30;;;;;;;2.33;1.60;;;;;;;;;;4994223;28;20487;-84
2022/09/23 04:51:03;;;;;;;2.35;1.63;;;;;;;;;;4994706;28;20041;-85
2022/09/23 04:53:29;;;;;;;2.75;1.70;;;;;;;;;;4994857;28;20113;-84
2022/09/23 04:56:03;;;;;;;2.17;1.77;;;;;;;;;;4960764;28;20562;-85
2022/09/23 04:58:28;;;;;;;;;;;;;;;;;;4995234;28;20089;-83
2022/09/23 05:00:55;;;;;;;1.73;1.50;;;;;;;;;;4977482;28;20375;-84
2022/09/23 05:03:20;;;;;;;2.55;1.75;;;;;;;;;;4977283;28;20061;-85
2022/09/23 05:05:46;;;;;;;2.75;1.90;;;;;;;;;;4976567;28;20081;-85
2022/09/23 05:08:12;;;;;;;2.38;1.80;;;;;;;;;;4994088;28;20041;-84
2022/09/23 05:10:37;;;;;;;5.38;1.63;;;;;;;;;;4976994;28;20049;-84
2022/09/23 05:13:03;;;;;;;2.38;1.65;;;;;;;;;;4976292;28;20120;-83
2022/09/23 05:15:28;;;;;;;2.60;1.90;;;;;;;;;;4994147;28;20053;-83
2022/09/23 05:17:57;;;;;;;2.17;1.75;;;;;;;;;;4977199;28;20495;-82
2022/09/23 05:20:22;;;;;;;3.05;2.20;;;;;;;;;;4994553;28;20062;-85
2022/09/23 05:22:47;;;;;;;3.42;2.50;;;;;;;;;;4994512;28;20038;-85
2022/09/23 05:25:13;;;;;;;3.97;2.67;;;;;;;;;;4993479;28;20113;-85
2022/09/23 05:27:38;;;;;;;4.35;2.80;;;;;;;;;;4994385;28;20038;-85
2022/09/23 05:30:04;;;;;;;3.90;2.45;;;;;;;;;;4996209;28;20034;-84
2022/09/23 05:32:30;;;;;;;4.75;2.70;;;;;;;;;;4998187;28;20049;-85
2022/09/23 05:34:56;;;;;;;21.02;8.75;;;;;;;;;;4997532;28;20038;-83
2022/09/23 05:37:22;;;;;;;9.43;5.43;;;;;;;;;;4998142;28;20037;-83
2022/09/23 05:39:47;;;;;;;9.65;5.90;;;;;;;;;;4980525;28;20749;-86
2022/09/23 05:42:14;;;;;;;8.50;6.05;;;;;;;;;;4997801;28;20141;-85
2022/09/23 05:44:40;;;;;;;6.88;4.30;;;;;;;;;;4979782;28;20038;-81
2022/09/23 05:47:05;;;;;;;5.43;3.13;;;;;;;;;;4998093;28;20045;-83
2022/09/23 05:49:31;;;;;;;8.10;5.40;;;;;;;;;;4997847;28;20479;-85
2022/09/23 05:51:56;;;;;;;10.30;4.25;;;;;;;;;;4980750;28;20049;-85
2022/09/23 05:54:22;;;;;;;6.00;3.80;;;;;;;;;;4997205;28;20037;-85
2022/09/23 05:56:47;;;;;;;5.20;3.60;;;;;;;;;;4980622;28;20503;-86
2022/09/23 05:59:13;;;;;;;5.25;3.50;;;;;;;;;;4979760;28;20101;-84
2022/09/23 06:01:39;;;;;;;6.63;4.00;;;;;;;;;;4998182;28;20038;-84
2022/09/23 06:04:06;;;;;;;5.25;3.88;;;;;;;;;;4997679;28;20495;-83
2022/09/23 06:06:36;;;;;;;4.88;3.75;;;;;;;;;;4997775;28;20042;-85
2022/09/23 06:09:03;;;;;;;6.03;3.70;;;;;;;;;;4997870;28;20041;-85
2022/09/23 06:11:29;;;;;;;6.75;4.68;;;;;;;;;;4997100;28;20066;-85
2022/09/23 06:13:59;;;;;;;6.03;4.30;;;;;;;;;;4980333;28;20599;-81
2022/09/23 06:16:26;;;;;;;5.68;4.20;;;;;;;;;;4964113;28;20030;-83
2022/09/23 06:18:52;;;;;;;7.75;4.45;;;;;;;;;;4997619;28;20034;-83
2022/09/23 06:21:17;;;;;;;8.00;3.85;;;;;;;;;;4997584;28;20045;-83
2022/09/23 06:23:44;;;;;;;4.53;3.10;;;;;;;;;;4997640;28;20038;-83
2022/09/23 06:26:12;;;;;;;6.88;2.88;;;;;;;;;;4997250;28;20057;-82
2022/09/23 06:28:39;;;;;;;4.32;2.70;;;;;;;;;;4978298;28;20455;-83
2022/09/23 06:31:08;;;;;;;4.65;3.08;;;;;;;;;;4978194;28;20072;-84
2022/09/23 06:33:34;;;;;;;3.22;2.33;;;;;;;;;;4960248;28;20050;-84
2022/09/23 06:36:02;;;;;;;3.28;2.40;;;;;;;;;;4977888;28;20035;-84
2022/09/23 06:38:28;;;;;;;8.13;2.20;;;;;;;;;;4977218;28;20492;-84
2022/09/23 06:40:56;;;;;;;3.72;2.70;;;;;;;;;;4976796;28;20073;-83
2022/09/23 06:43:23;;;;;;;5.65;2.80;;;;;;;;;;4965480;28;20408;-84
2022/09/23 06:45:57;;;;;;;4.47;2.60;;;;;;;;;;4964639;28;20460;-84
2022/09/23 06:48:23;;;;;;;2.85;2.20;;;;;;;;;;4981491;28;20039;-83
2022/09/23 06:50:52;;;;;;;3.58;1.98;;;;;;;;;;4964075;28;20038;-84
2022/09/23 06:53:21;;;;;;;3.85;2.20;;;;;;;;;;4982621;28;20475;-84
2022/09/23 06:55:47;;;;;;;2.65;1.90;;;;;;;;;;4979176;28;20097;-84
2022/09/23 06:58:13;;;;;;;2.95;2.00;;;;;;;;;;4977930;28;20062;-83
2022/09/23 07:00:39;;;;;;;4.10;2.40;;;;;;;;;;4961448;28;20030;-85
2022/09/23 07:03:08;;;;;;;6.13;3.17;;;;;;;;;;4961787;28;20054;-83
2022/09/23 07:05:34;;;;;;;4.90;3.00;;;;;;;;;;4984603;28;20045;-83
2022/09/23 07:08:00;;;;;;;8.88;3.40;;;;;;;;;;4982452;28;20039;-80
2022/09/23 07:10:29;;;;;;;4.72;2.80;;;;;;;;;;4993219;28;20035;-82
2022/09/23 07:12:55;;;;;;;4.05;2.45;;;;;;;;;;4975777;28;20042;-84
2022/09/23 07:15:20;;;;;;;5.63;2.38;;;;;;;;;;4994937;28;20041;-83
2022/09/23 07:17:46;;;;;;;4.97;2.65;;;;;;;;;;4994037;28;20090;-82
2022/09/23 07:20:11;;;;;;;4.75;2.47;;;;;;;;;;4972538;28;20093;-84
2022/09/23 07:22:37;;;;;;;3.25;2.30;;;;;;;;;;4997109;28;20046;-83
2022/09/23 07:25:04;;;;;;;3.58;2.05;;;;;;;;;;5021877;28;20037;-82
2022/09/23 07:27:30;;;;;;;3.13;2.10;;;;;;;;;;5019897;28;20042;-84
2022/09/23 07:29:56;;;;;;;4.90;2.17;;;;;;;;;;4998124;28;20042;-84
2022/09/23 07:32:22;;;;;;;2.95;2.00;;;;;;;;;;5015680;28;20040;-83
2022/09/23 07:34:48;;;;;;;2.67;2.00;;;;;;;;;;5015611;28;20040;-84
2022/09/23 07:37:15;;;;;;;2.97;1.90;;;;;;;;;;5014932;28;20038;-82
2022/09/23 07:39:42;;;;;;;3.08;1.90;;;;;;;;;;5015441;28;20018;-85
2022/09/23 07:42:08;;;;;;;2.60;1.80;;;;;;;;;;5015615;28;20052;-82
2022/09/23 07:44:33;;;;;;;3.88;1.85;;;;;;;;;;4997339;28;20037;-82
2022/09/23 07:46:59;;;;;;;2.88;1.92;;;;;;;;;;4998150;28;20049;-83
2022/09/23 07:49:26;;;;;;;4.10;1.88;;;;;;;;;;5015798;28;20117;-83
2022/09/23 07:51:52;;;;;;;5.50;1.80;;;;;;;;;;5014624;28;20045;-83
2022/09/23 07:54:18;;;;;;;8.02;2.00;;;;;;;;;;5014414;28;20124;-82
2022/09/23 07:56:44;;;;;;;3.17;1.92;;;;;;;;;;5015109;28;20044;-83
2022/09/23 07:59:14;;;;;;;2.92;1.70;;;;;;;;;;5015252;28;20034;-83
2022/09/23 08:01:42;;;;;;;2.88;1.60;;;;;;;;;;4998134;28;20037;-83
2022/09/23 08:04:11;;;;;;;2.85;1.70;;;;;;;;;;5014734;28;20109;-82
2022/09/23 08:06:44;;;;;;;2.25;1.63;;;;;;;;;;4997945;28;20033;-84
2022/09/23 08:09:10;;;;;;;;;;;;;;;;;;5016676;28;20399;-84
2022/09/23 08:11:38;;;;;;;2.50;1.50;;;;;;;;;;5016439;28;19910;-85
2022/09/23 08:14:03;;;;;;;3.15;1.50;;;;;;;;;;5017191;28;20037;-85
2022/09/23 08:16:29;;;;;;;2.33;1.58;;;;;;;;;;5017295;28;20042;-84
2022/09/23 08:18:54;;;;;;;2.10;1.20;;;;;;;;;;5017666;28;20044;-85
2022/09/23 08:21:21;;;;;;;2.65;1.35;;;;;;;;;;5018152;28;20088;-85
2022/09/23 08:23:47;;;;;;;1.73;1.20;;;;;;;;;;5018581;28;20124;-85
2022/09/23 08:26:13;;;;;;;1.88;1.35;;;;;;;;;;5018637;28;20038;-85
2022/09/23 08:28:39;;;;;;;4.47;1.40;;;;;;;;;;4984607;28;20049;-85
2022/09/23 08:31:07;;;;;;;1.73;1.35;;;;;;;;;;5018213;28;20037;-85
2022/09/23 08:33:33;;;;;;;4.35;1.30;;;;;;;;;;5018140;28;20049;-84
2022/09/23 08:36:00;;;;;;;4.30;1.50;;;;;;;;;;5018428;28;20100;-85
2022/09/23 08:38:26;;;;;;;3.38;1.38;;;;;;;;;;5018733;28;20479;-85
2022/09/23 08:41:06;;;;;;;2.00;1.20;;;;;;;;;;5000874;28;20041;-85
2022/09/23 08:43:34;;;;;;;2.22;1.40;;;;;;;;;;5018584;28;20034;-85
2022/09/23 08:46:04;;;;;;;2.97;1.38;;;;;;;;;;5018646;28;20119;-84
2022/09/23 08:48:34;;;;;;;1.80;1.30;;;;;;;;;;5018828;28;20033;-85
2022/09/23 08:51:11;;;;;;;1.88;1.30;;;;;;;;;;5018816;28;20513;-85
2022/09/23 08:53:37;;;;;;;1.48;1.13;;;;;;;;;;5018720;28;20041;-86
2022/09/23 08:56:12;;;;;;;1.70;1.20;;;;;;;;;;5017613;28;20465;-85
2022/09/23 08:58:44;;;;;;;2.08;1.50;;;;;;;;;;5019100;28;20030;-86
2022/09/23 09:01:12;;;;;;;5.18;1.60;;;;;;;;;;5019146;28;20487;-86
2022/09/23 09:03:49;;;;;;;1.92;1.20;;;;;;;;;;4999482;28;20045;-86
2022/09/23 09:06:19;;;;;;;3.88;1.30;;;;;;;;;;5017723;28;20120;-86
2022/09/23 09:08:52;;;;;;;1.42;1.20;;;;;;;;;;5017900;28;20037;-86
2022/09/23 09:11:19;;;;;;;3.00;1.50;;;;;;;;;;5017299;28;20194;-86
2022/09/23 09:13:58;;;;;;;1.65;1.48;;;;;;;;;;5017979;28;20026;-86
2022/09/23 09:16:41;;;;;;;2.38;1.20;;;;;;;;;;5000717;28;20134;-86
2022/09/23 09:19:25;;;;;;;1.45;1.20;;;;;;;;;;5000443;28;20399;-85
2022/09/23 09:21:53;;;;;;;1.90;1.15;;;;;;;;;;5000059;28;20042;-86
2022/09/23 09:24:36;;;;;;;1.83;1.30;;;;;;;;;;5017845;28;20038;-86
2022/09/23 09:27:10;;;;;;;4.93;1.50;;;;;;;;;;5018489;28;20065;-85
2022/09/23 09:29:40;;;;;;;1.80;1.40;;;;;;;;;;5019203;28;20038;-86
2022/09/23 09:32:32;;;;;;;1.80;1.23;;;;;;;;;;5018743;28;20038;-86
2022/09/23 09:35:06;;;;;;;1.85;1.30;;;;;;;;;;5000361;28;20044;-86
2022/09/23 09:37:50;;;;;;;4.60;1.38;;;;;;;;;;5018053;28;20117;-86
2022/09/23 09:40:16;;;;;;;3.47;1.50;;;;;;;;;;5018113;28;20029;-86
2022/09/23 09:42:46;;;;;;;1.67;1.30;;;;;;;;;;5017887;28;20040;-86
2022/09/23 09:45:45;;;;;;;1.80;1.40;;;;;;;;;;5018871;28;20038;-86
2022/09/23 09:48:19;;;;;;;1.70;1.25;;;;;;;;;;5018238;28;20045;-86
2022/09/23 09:50:48;;;;;;;1.58;1.35;;;;;;;;;;5000803;28;20061;-86
2022/09/23 09:53:26;;;;;;;3.28;1.30;;;;;;;;;;5000724;28;20042;-86
2022/09/23 09:56:07;;;;;;;1.40;1.20;;;;;;;;;;5000449;28;20036;-86
2022/09/23 09:58:49;;;;;;;1.90;1.23;;;;;;;;;;5018120;28;20044;-86
2022/09/23 10:01:18;;;;;;;1.88;1.33;;;;;;;;;;5018199;28;20038;-86
2022/09/23 10:03:44;;;;;;;1.83;1.30;;;;;;;;;;5018183;28;20120;-86
2022/09/23 10:06:25;;;;;;;2.20;1.17;;;;;;;;;;5018410;28;20061;-86
2022/09/23 10:09:00;;;;;;;2.63;1.80;;;;;;;;;;5018440;28;20042;-87
2022/09/23 10:11:27;;;;;;;7.32;2.63;;;;;;;;;;5017023;28;20044;-87
2022/09/23 10:13:59;;;;;;;8.82;4.20;;;;;;;;;;5018418;28;20038;-86
2022/09/23 10:16:25;;;;;;;4.15;1.95;;;;;;;;;;5003068;28;20058;-86
2022/09/23 10:18:54;;;;;;;10.20;5.03;;;;;;;;;;5021090;28;20410;-85
2022/09/23 10:21:22;;;;;;;6.55;3.08;;;;;;;;;;5021621;28;20061;-86
2022/09/23 10:24:00;;;;;;;6.47;3.72;;;;;;;;;;5004326;28;20446;-85
2022/09/23 10:26:32;;;;;;;6.00;3.83;;;;;;;;;;5021134;28;20034;-86
2022/09/23 10:29:01;;;;;;;3.58;2.00;;;;;;;;;;5004535;28;20049;-86
2022/09/23 10:31:33;;;;;;;2.65;1.88;;;;;;;;;;5022825;28;20081;-85
2022/09/23 10:34:00;;;;;;;3.65;1.90;;;;;;;;;;5003105;28;20061;-85
2022/09/23 10:36:30;;;;;;;3.78;2.42;;;;;;;;;;5020989;28;20092;-85
2022/09/23 10:46:37;;;;;;;4.47;1.77;;;;;;;;;;5020840;28;20034;-85
2022/09/23 10:48:14;;;;;;;1.80;1.50;;;;;;;;;;5003015;28;20090;-86
2022/09/23 10:50:43;;;;;;;2.20;1.60;;;;;;;;;;5021185;28;20044;-86
2022/09/23 10:53:19;;;;;;;3.17;1.70;;;;;;;;;;5021502;28;20284;-86
2022/09/23 10:55:57;;;;;;;2.35;1.63;;;;;;;;;;5020755;28;20093;-85
2022/09/23 10:58:57;;;;;;;4.88;1.92;;;;;;;;;;5021087;28;20042;-85
2022/09/23 11:01:58;;;;;;;4.45;1.80;;;;;;;;;;5021188;28;20038;-84
2022/09/23 11:04:42;;;;;;;2.55;1.80;;;;;;;;;;4978110;28;20053;-85
2022/09/23 11:07:34;;;;;;;5.40;1.85;;;;;;;;;;4983365;28;20105;-86
2022/09/23 11:10:21;;;;;;;3.42;2.30;;;;;;;;;;4983837;28;20034;-86
2022/09/23 11:13:12;;;;;;;3.03;2.20;;;;;;;;;;4981917;28;20038;-86
2022/09/23 11:15:50;;;;;;;3.28;2.05;;;;;;;;;;4999774;28;20034;-86
2022/09/23 11:18:18;;;;;;;5.05;1.90;;;;;;;;;;4980378;28;20038;-86
2022/09/23 11:21:06;;;;;;;3.90;2.10;;;;;;;;;;5016473;28;20073;-87
2022/09/23 11:23:43;;;;;;;4.88;3.00;;;;;;;;;;5000331;28;20077;-87
2022/09/23 11:26:22;;;;;;;7.78;2.80;;;;;;;;;;4981919;28;20518;-87
2022/09/23 11:29:02;;;;;;;5.78;2.03;;;;;;;;;;4982017;28;20038;-86
2022/09/23 11:31:41;;;;;;;4.22;2.60;;;;;;;;;;5000593;28;20034;-87
2022/09/23 11:34:24;;;;;;;4.03;2.38;;;;;;;;;;5000794;28;20042;-87
2022/09/23 11:37:00;;;;;;;3.85;2.40;;;;;;;;;;4983304;28;20042;-87
2022/09/23 11:39:31;;;;;;;4.20;2.30;;;;;;;;;;5001907;28;20041;-87
2022/09/23 11:42:00;;;;;;;2.75;2.22;;;;;;;;;;4984179;28;20132;-87
2022/09/23 11:44:38;;;;;;;5.30;2.53;;;;;;;;;;4983876;28;20066;-87
2022/09/23 11:47:03;;;;;;;5.03;2.67;;;;;;;;;;4984909;28;20427;-87
2022/09/23 11:49:56;;;;;;;5.00;2.38;;;;;;;;;;4984613;28;20038;-87
2022/09/23 11:52:35;;;;;;;4.13;2.60;;;;;;;;;;5001471;28;20050;-86
2022/09/23 11:55:21;;;;;;;4.38;2.80;;;;;;;;;;4984511;28;20034;-87
2022/09/23 11:58:03;;;;;;;6.32;2.70;;;;;;;;;;4984944;28;20046;-87
2022/09/23 12:00:35;;;;;;;6.18;2.70;;;;;;;;;;4984408;28;20034;-87
2022/09/23 12:03:23;;;;;;;5.68;2.60;;;;;;;;;;5002437;28;20098;-87
2022/09/23 12:05:57;;;;;;;4.40;2.67;;;;;;;;;;5001937;28;20072;-87
2022/09/23 12:08:38;;;;;;;6.38;2.90;;;;;;;;;;4984761;28;20022;-87
2022/09/23 12:11:05;;;;;;;3.97;2.80;;;;;;;;;;5001373;28;20104;-88
2022/09/23 12:13:39;;;;;;;4.97;2.72;;;;;;;;;;5003109;28;20041;-88
2022/09/23 12:16:43;;;;;;;5.57;2.90;;;;;;;;;;4984843;28;20038;-88
2022/09/23 12:19:21;;;;;;;5.35;2.70;;;;;;;;;;4996923;28;20054;-88
2022/09/23 12:22:24;;;;;;;6.80;3.03;;;;;;;;;;4985502;28;20034;-88
2022/09/23 12:24:56;;;;;;;6.22;3.58;;;;;;;;;;5001484;28;20040;-88
2022/09/23 12:27:31;;;;;;;5.32;3.05;;;;;;;;;;4968862;28;20038;-88
2022/09/23 12:30:04;;;;;;;5.63;3.00;;;;;;;;;;5002274;28;20093;-88
2022/09/23 12:32:30;;;;;;;5.03;2.90;;;;;;;;;;4985660;28;20046;-88
2022/09/23 12:34:57;;;;;;;5.50;2.75;;;;;;;;;;5001738;28;20046;-87
2022/09/23 12:37:35;;;;;;;5.47;3.10;;;;;;;;;;5002614;28;20034;-88
2022/09/23 12:40:18;;;;;;;10.38;2.78;;;;;;;;;;4983907;28;20038;-87
2022/09/23 12:42:45;;;;;;;4.97;2.50;;;;;;;;;;5001237;28;20037;-87
2022/09/23 12:45:16;;;;;;;4.30;2.58;;;;;;;;;;5001770;28;20030;-87
2022/09/23 12:47:41;;;;;;;4.40;2.88;;;;;;;;;;5001766;28;20040;-87
2022/09/23 12:51:01;;;;;;;4.65;3.00;;;;;;;;;;5001430;28;20109;-87
2022/09/23 12:53:32;;;;;;;4.40;2.50;;;;;;;;;;4953562;28;20059;-86
2022/09/23 12:55:59;;;;;;;5.75;2.75;;;;;;;;;;4954309;28;20059;-84
2022/09/23 12:58:57;;;;;;;3.60;2.72;;;;;;;;;;4978484;28;20031;-87
2022/09/23 13:01:25;;;;;;;5.43;2.53;;;;;;;;;;4936720;28;20074;-88
2022/09/23 13:06:45;;;;;;;5.18;2.58;;;;;;;;;;4961742;28;20130;-87
2022/09/23 13:09:23;;;;;;;3.90;2.20;;;;;;;;;;4979286;28;20454;-87
2022/09/23 13:11:51;;;;;;;4.25;2.30;;;;;;;;;;4960883;28;20089;-88
2022/09/23 13:14:21;;;;;;;5.38;2.55;;;;;;;;;;4981403;28;20389;-89
2022/09/23 13:16:48;;;;;;;4.95;2.33;;;;;;;;;;4981599;28;20097;-88
2022/09/23 13:19:25;;;;;;;4.82;2.05;;;;;;;;;;4982451;28;20066;-88
2022/09/23 13:22:07;;;;;;;6.50;2.28;;;;;;;;;;4965425;28;20040;-88
2022/09/23 13:24:43;;;;;;;5.82;2.53;;;;;;;;;;4981618;28;20037;-87
2022/09/23 13:27:29;;;;;;;4.25;2.85;;;;;;;;;;4979422;28;20065;-88
2022/09/23 13:30:00;;;;;;;4.38;2.50;;;;;;;;;;4981129;28;20035;-88
2022/09/23 13:32:30;;;;;;;5.93;2.60;;;;;;;;;;4980572;28;20038;-88
2022/09/23 13:35:14;;;;;;;6.25;3.28;;;;;;;;;;4980180;28;20070;-88
2022/09/23 13:37:39;;;;;;;3.80;2.63;;;;;;;;;;4964898;28;20089;-88
2022/09/23 13:40:17;;;;;;;3.75;2.47;;;;;;;;;;4981649;28;20070;-88
2022/09/23 13:42:46;;;;;;;5.20;2.60;;;;;;;;;;4980745;28;20035;-88
2022/09/23 13:45:17;;;;;;;6.72;2.47;;;;;;;;;;4963992;28;20022;-88
2022/09/23 13:47:45;;;;;;;4.07;2.20;;;;;;;;;;4980949;28;20054;-87
2022/09/23 13:50:17;;;;;;;3.50;2.55;;;;;;;;;;4981299;28;20062;-88
2022/09/23 13:52:42;;;;;;;4.63;2.20;;;;;;;;;;4983390;28;20045;-88
2022/09/23 13:55:30;;;;;;;4.50;2.50;;;;;;;;;;4982197;28;20051;-88
2022/09/23 13:58:13;;;;;;;4.93;2.33;;;;;;;;;;4967053;28;20097;-88
2022/09/23 14:00:38;;;;;;;4.70;2.72;;;;;;;;;;4982362;28;20034;-87
2022/09/23 14:03:38;;;;;;;5.32;2.30;;;;;;;;;;4981766;28;20049;-87
2022/09/23 14:06:15;;;;;;;5.13;2.63;;;;;;;;;;4940248;28;20076;-87
2022/09/23 14:08:44;;;;;;;5.40;2.63;;;;;;;;;;4982417;28;20034;-88
2022/09/23 14:11:18;;;;;;;4.35;2.60;;;;;;;;;;4981904;28;20101;-88
2022/09/23 14:13:46;;;;;;;3.35;2.40;;;;;;;;;;4983299;28;20038;-88
2022/09/23 14:16:13;;;;;;;5.95;2.40;;;;;;;;;;4965416;28;20039;-88
2022/09/23 14:18:45;;;;;;;5.88;2.70;;;;;;;;;;4965359;28;20035;-88
2022/09/23 14:21:36;;;;;;;3.75;2.80;;;;;;;;;;4983200;28;20075;-88
2022/09/23 14:24:14;;;;;;;6.78;2.70;;;;;;;;;;4985536;28;20105;-88
2022/09/23 14:26:42;;;;;;;4.28;2.30;;;;;;;;;;4983663;28;20043;-87
2022/09/23 14:29:14;;;;;;;5.78;2.92;;;;;;;;;;4983506;28;20038;-87
2022/09/23 14:31:40;;;;;;;4.68;2.63;;;;;;;;;;4984519;28;20094;-91
2022/09/23 14:34:45;;;;;;;6.05;2.50;;;;;;;;;;4980693;28;20090;-89
2022/09/23 14:40:18;;;;;;;4.25;2.60;;;;;;;;;;4981682;28;19918;-89
2022/09/23 14:42:50;;;;;;;4.22;2.50;;;;;;;;;;4965193;28;20040;-89
2022/09/23 14:45:20;;;;;;;5.30;2.70;;;;;;;;;;4965710;28;20038;-88
2022/09/23 14:47:49;;;;;;;10.20;3.25;;;;;;;;;;4982428;28;20589;-88
2022/09/23 14:50:38;;;;;;;5.40;3.10;;;;;;;;;;4982028;28;20035;-88
2022/09/23 14:53:24;;;;;;;5.38;2.75;;;;;;;;;;4982677;28;20069;-87
2022/09/23 14:56:06;;;;;;;4.28;2.50;;;;;;;;;;4966704;28;20053;-88
2022/09/23 14:58:46;;;;;;;4.45;2.55;;;;;;;;;;4981178;28;20182;-87
2022/09/23 15:01:29;;;;;;;5.07;2.50;;;;;;;;;;4981041;28;20035;-88
2022/09/23 15:03:56;;;;;;;;;;;;;;;;;;4980538;28;20098;-87
2022/09/23 15:06:23;;;;;;;4.15;2.75;;;;;;;;;;4982168;28;20406;-89
2022/09/23 15:08:50;;;;;;;5.68;2.70;;;;;;;;;;4982663;28;20038;-88
2022/09/23 15:11:16;;;;;;;7.10;2.47;;;;;;;;;;4979940;28;20102;-88
2022/09/23 15:13:46;;;;;;;3.92;2.40;;;;;;;;;;4978973;28;20035;-88
2022/09/23 15:16:14;;;;;;;5.60;2.60;;;;;;;;;;4978727;28;20038;-88
2022/09/23 15:18:43;;;;;;;6.63;2.38;;;;;;;;;;4979274;28;20039;-88
2022/09/23 15:21:10;;;;;;;3.40;2.25;;;;;;;;;;4982520;28;20035;-88
2022/09/23 15:23:53;;;;;;;3.83;2.30;;;;;;;;;;4981940;28;20046;-88
2022/09/23 15:26:22;;;;;;;4.45;2.40;;;;;;;;;;4965303;28;20087;-87